Time;durP1;ratioP1;P1;durP2;ratioP2;P2;SDS_P1;SDS_P2;PMS_P1;PMS_P2;Temp;Humidity;BMP_temperature;BMP_pressure;BME280_temperature;BME280_humidity;BME280_pressure;Samples;Min_cycle;Max_cycle;Signal;HPM_P1;HPM_P2
2023/12/29 00:00:04;;;;;;;6.20;1.37;;;11.50;99.90;;;;;;5140886;27;20465;-69
2023/12/29 00:02:31;;;;;;;11.37;2.10;;;11.60;99.90;;;;;;5140775;27;20445;-69
2023/12/29 00:04:58;;;;;;;7.70;2.23;;;11.60;99.90;;;;;;5140546;27;20441;-69
2023/12/29 00:07:24;;;;;;;4.87;1.33;;;11.60;99.90;;;;;;5141546;27;20446;-69
2023/12/29 00:09:51;;;;;;;4.77;1.70;;;11.60;99.90;;;;;;5140870;27;20457;-69
2023/12/29 00:12:18;;;;;;;7.20;1.37;;;11.60;99.90;;;;;;5141020;27;20442;-69
2023/12/29 00:14:45;;;;;;;7.13;1.30;;;11.60;99.90;;;;;;5140922;27;20449;-69
2023/12/29 00:17:13;;;;;;;7.30;1.80;;;11.70;99.90;;;;;;5140792;27;20441;-69
2023/12/29 00:19:41;;;;;;;7.57;1.50;;;11.70;99.90;;;;;;5137148;27;20457;-69
2023/12/29 00:22:07;;;;;;;3.43;1.17;;;11.70;99.90;;;;;;5137363;27;20437;-69
2023/12/29 00:24:35;;;;;;;4.90;1.73;;;11.70;99.90;;;;;;5137872;27;20433;-69
2023/12/29 00:27:02;;;;;;;7.93;1.40;;;11.70;99.90;;;;;;5137378;27;20508;-69
2023/12/29 00:29:32;;;;;;;2.50;1.37;;;11.70;99.90;;;;;;5137275;27;20466;-69
2023/12/29 00:32:00;;;;;;;3.87;1.57;;;11.70;99.90;;;;;;5118873;27;20446;-69
2023/12/29 00:34:28;;;;;;;7.93;1.43;;;11.70;99.90;;;;;;5137268;27;20529;-69
2023/12/29 00:36:55;;;;;;;8.23;1.47;;;11.80;99.90;;;;;;5119228;27;20449;-69
2023/12/29 00:39:28;;;;;;;4.80;1.23;;;11.80;99.90;;;;;;5136832;27;20982;-69
2023/12/29 00:41:55;;;;;;;4.60;1.43;;;11.70;99.90;;;;;;5136736;27;20833;-68
2023/12/29 00:44:22;;;;;;;5.37;1.20;;;11.70;99.90;;;;;;5137074;27;20935;-69
2023/12/29 00:46:48;;;;;;;4.77;1.47;;;11.70;99.90;;;;;;5136965;27;20478;-69
2023/12/29 00:49:15;;;;;;;9.87;2.07;;;11.70;99.90;;;;;;5136945;27;20958;-69
2023/12/29 00:51:45;;;;;;;4.03;1.13;;;11.70;99.90;;;;;;5137050;27;20457;-69
2023/12/29 00:54:11;;;;;;;7.67;1.67;;;11.70;99.90;;;;;;5137060;27;20438;-69
2023/12/29 00:56:38;;;;;;;7.77;1.40;;;11.70;99.90;;;;;;5136671;27;20449;-69
2023/12/29 00:59:04;;;;;;;3.07;1.37;;;11.70;99.90;;;;;;5136118;27;20807;-69
2023/12/29 01:01:35;;;;;;;4.50;2.07;;;11.70;99.90;;;;;;5150903;27;20448;-69
2023/12/29 01:04:02;;;;;;;4.53;1.67;;;11.70;99.90;;;;;;5141614;27;20237;-69
2023/12/29 01:06:29;;;;;;;5.33;1.70;;;11.70;99.90;;;;;;5141349;27;20485;-69
2023/12/29 01:08:57;;;;;;;6.83;1.97;;;11.70;99.90;;;;;;5139066;27;20449;-69
2023/12/29 01:11:24;;;;;;;9.00;2.60;;;11.70;99.90;;;;;;5138563;27;20438;-69
2023/12/29 01:13:50;;;;;;;5.43;1.67;;;11.70;99.90;;;;;;5137846;27;20440;-69
2023/12/29 01:16:17;;;;;;;7.90;1.73;;;11.70;99.90;;;;;;5120101;27;20434;-69
2023/12/29 01:18:44;;;;;;;9.03;1.93;;;11.70;99.90;;;;;;5137085;27;20449;-69
2023/12/29 01:21:11;;;;;;;5.97;1.70;;;11.80;99.90;;;;;;5137058;27;20462;-69
2023/12/29 01:23:38;;;;;;;11.70;1.57;;;11.70;99.90;;;;;;5136775;27;20442;-69
2023/12/29 01:26:06;;;;;;;6.07;2.20;;;11.70;99.90;;;;;;5136364;27;20481;-69
2023/12/29 01:28:33;;;;;;;3.77;1.40;;;11.70;99.90;;;;;;5136538;27;20442;-69
2023/12/29 01:30:59;;;;;;;6.03;2.13;;;11.70;99.90;;;;;;5135899;27;20843;-69
2023/12/29 01:33:26;;;;;;;6.17;1.30;;;11.70;99.90;;;;;;5136747;27;20445;-69
2023/12/29 01:35:53;;;;;;;5.17;2.03;;;11.60;99.90;;;;;;5135950;27;20950;-69
2023/12/29 01:38:20;;;;;;;5.90;1.87;;;11.60;99.90;;;;;;5117467;27;20438;-69
2023/12/29 01:40:47;;;;;;;10.53;1.90;;;11.60;99.90;;;;;;5117711;27;20492;-69
2023/12/29 01:43:15;;;;;;;7.70;2.00;;;11.60;99.90;;;;;;5135821;27;20443;-69
2023/12/29 01:45:42;;;;;;;7.87;1.83;;;11.60;99.90;;;;;;5135742;27;20489;-69
2023/12/29 01:48:09;;;;;;;9.70;2.00;;;11.60;99.90;;;;;;5135979;27;20437;-69
2023/12/29 01:50:36;;;;;;;4.90;1.77;;;11.60;99.90;;;;;;5118283;27;20462;-69
2023/12/29 01:53:04;;;;;;;5.10;1.70;;;11.60;99.90;;;;;;5135908;27;20445;-69
2023/12/29 01:55:32;;;;;;;7.20;1.73;;;11.60;99.90;;;;;;5135569;27;20457;-69
2023/12/29 01:57:59;;;;;;;8.83;2.00;;;11.60;99.90;;;;;;5135541;27;20837;-69
2023/12/29 02:00:28;;;;;;;5.30;1.60;;;11.60;99.90;;;;;;5135369;27;20458;-69
2023/12/29 02:02:55;;;;;;;11.60;2.00;;;11.60;99.90;;;;;;5135542;27;20450;-69
2023/12/29 02:05:26;;;;;;;5.00;1.70;;;11.60;99.90;;;;;;5136274;27;20465;-69
2023/12/29 02:07:54;;;;;;;4.20;1.67;;;11.50;99.90;;;;;;5138451;27;20417;-69
2023/12/29 02:10:21;;;;;;;16.20;2.53;;;11.50;99.90;;;;;;5135510;27;20858;-69
2023/12/29 02:12:49;;;;;;;6.70;1.90;;;11.50;99.90;;;;;;5135488;27;20442;-69
2023/12/29 02:15:16;;;;;;;5.80;2.10;;;11.50;99.90;;;;;;5135413;27;20442;-69
2023/12/29 02:17:48;;;;;;;6.70;1.73;;;11.40;99.90;;;;;;5134861;27;20465;-69
2023/12/29 02:20:16;;;;;;;9.33;1.90;;;11.40;99.90;;;;;;5134985;27;20475;-69
2023/12/29 02:22:42;;;;;;;6.80;1.80;;;11.30;99.90;;;;;;5135056;27;20442;-69
2023/12/29 02:25:11;;;;;;;8.30;2.33;;;11.40;99.90;;;;;;5134461;27;20490;-69
2023/12/29 02:27:46;;;;;;;6.30;1.90;;;11.30;99.90;;;;;;5134956;27;20839;-69
2023/12/29 02:30:21;;;;;;;4.80;1.90;;;11.20;99.90;;;;;;5134824;27;20458;-68
2023/12/29 02:32:50;;;;;;;8.97;2.03;;;11.20;99.90;;;;;;5134815;27;20798;-68
2023/12/29 02:35:23;;;;;;;6.93;2.27;;;11.10;99.90;;;;;;5134989;27;20442;-68
2023/12/29 02:37:51;;;;;;;9.57;2.00;;;11.00;99.90;;;;;;5134927;27;20415;-68
2023/12/29 02:40:19;;;;;;;6.67;2.63;;;11.00;99.90;;;;;;5116695;27;20492;-68
2023/12/29 02:42:48;;;;;;;7.90;2.53;;;11.00;99.90;;;;;;5134191;27;20817;-68
2023/12/29 02:45:15;;;;;;;7.50;1.80;;;11.00;99.90;;;;;;5134795;27;20474;-68
2023/12/29 02:47:42;;;;;;;8.53;2.23;;;11.00;99.90;;;;;;5134671;27;20481;-68
2023/12/29 02:50:10;;;;;;;8.67;2.00;;;11.00;99.90;;;;;;5134587;27;20498;-68
2023/12/29 02:52:36;;;;;;;3.27;1.50;;;11.00;99.90;;;;;;5134780;27;20441;-68
2023/12/29 02:55:04;;;;;;;7.93;1.80;;;11.00;99.90;;;;;;5134503;27;20454;-69
2023/12/29 02:57:32;;;;;;;12.40;2.40;;;11.00;99.90;;;;;;5116238;27;20522;-68
2023/12/29 02:59:59;;;;;;;7.67;2.03;;;11.00;99.90;;;;;;5134956;27;20454;-68
2023/12/29 03:02:25;;;;;;;3.50;1.70;;;11.10;99.90;;;;;;5134561;27;20449;-69
2023/12/29 03:04:52;;;;;;;8.00;2.70;;;11.00;99.90;;;;;;5134382;27;20441;-69
2023/12/29 03:07:19;;;;;;;12.70;2.50;;;11.00;99.90;;;;;;5134249;28;20485;-68
2023/12/29 03:09:46;;;;;;;5.13;1.77;;;11.00;99.90;;;;;;5134358;28;20462;-68
2023/12/29 03:12:12;;;;;;;12.70;2.20;;;11.00;99.90;;;;;;5134379;28;20445;-69
2023/12/29 03:14:40;;;;;;;6.87;1.47;;;11.00;99.90;;;;;;5134623;28;20453;-69
2023/12/29 03:17:07;;;;;;;5.30;1.40;;;11.00;99.90;;;;;;5132001;28;20442;-69
2023/12/29 03:19:34;;;;;;;4.90;1.67;;;11.10;99.90;;;;;;5142091;28;20458;-68
2023/12/29 03:22:01;;;;;;;7.77;1.63;;;11.10;99.90;;;;;;5137988;28;20440;-69
2023/12/29 03:24:28;;;;;;;10.50;2.10;;;11.10;99.90;;;;;;5135948;28;20438;-69
2023/12/29 03:26:55;;;;;;;12.53;1.63;;;11.20;99.90;;;;;;5135884;28;20502;-69
2023/12/29 03:29:21;;;;;;;7.70;1.80;;;11.30;99.90;;;;;;5134838;28;20974;-69
2023/12/29 03:31:49;;;;;;;7.40;1.50;;;11.20;99.90;;;;;;5134914;28;20445;-69
2023/12/29 03:34:16;;;;;;;4.03;0.93;;;11.30;99.90;;;;;;5135860;28;20446;-69
2023/12/29 03:36:43;;;;;;;5.80;1.63;;;11.30;99.90;;;;;;5134904;28;20438;-69
2023/12/29 03:39:10;;;;;;;8.13;1.70;;;11.30;99.90;;;;;;5134193;28;20986;-69
2023/12/29 03:41:36;;;;;;;9.30;1.80;;;11.30;99.90;;;;;;5134674;28;20434;-68
2023/12/29 03:44:03;;;;;;;10.37;1.57;;;11.30;99.90;;;;;;5134202;28;20441;-69
2023/12/29 03:46:31;;;;;;;7.00;1.67;;;11.40;99.90;;;;;;5134649;28;20483;-69
2023/12/29 03:48:59;;;;;;;7.23;2.10;;;11.40;99.90;;;;;;5134735;28;20450;-69
2023/12/29 03:51:26;;;;;;;13.03;2.93;;;11.40;99.90;;;;;;5134366;28;20434;-69
2023/12/29 03:53:53;;;;;;;19.07;2.23;;;11.40;99.90;;;;;;5134543;27;20438;-69
2023/12/29 03:56:20;;;;;;;8.80;2.00;;;11.50;99.90;;;;;;5138154;27;20449;-69
2023/12/29 03:58:47;;;;;;;6.00;2.13;;;11.50;99.90;;;;;;5137969;27;20449;-69
2023/12/29 04:01:14;;;;;;;4.30;1.70;;;11.50;99.90;;;;;;5137835;27;20458;-69
2023/12/29 04:03:41;;;;;;;6.00;2.10;;;11.50;99.90;;;;;;5137358;27;20438;-69
2023/12/29 04:06:10;;;;;;;4.83;1.53;;;11.50;99.90;;;;;;5137373;27;20437;-69
2023/12/29 04:08:37;;;;;;;5.30;1.87;;;11.50;99.90;;;;;;5137592;27;20446;-69
2023/12/29 04:11:04;;;;;;;9.03;1.50;;;11.50;99.90;;;;;;5137540;27;20462;-69
2023/12/29 04:13:31;;;;;;;6.03;2.20;;;11.50;99.90;;;;;;5137521;27;20437;-69
2023/12/29 04:15:58;;;;;;;7.03;2.33;;;11.50;99.90;;;;;;5137632;27;20440;-69
2023/12/29 04:18:26;;;;;;;5.60;1.40;;;11.50;99.90;;;;;;5137610;27;20435;-69
2023/12/29 04:20:52;;;;;;;7.37;1.70;;;11.50;99.90;;;;;;5137100;27;20843;-69
2023/12/29 04:23:20;;;;;;;10.97;2.40;;;11.50;99.90;;;;;;5137459;27;20437;-69
2023/12/29 04:25:47;;;;;;;7.50;1.80;;;11.50;99.90;;;;;;5137620;27;20445;-69
2023/12/29 04:28:14;;;;;;;6.63;2.50;;;11.50;99.90;;;;;;5137252;27;20477;-69
2023/12/29 04:30:40;;;;;;;8.13;1.90;;;11.50;99.90;;;;;;5137083;27;20477;-69
2023/12/29 04:33:07;;;;;;;6.20;1.87;;;11.50;99.90;;;;;;5137216;27;20475;-69
2023/12/29 04:35:34;;;;;;;7.97;1.87;;;11.40;99.90;;;;;;5137272;27;20809;-69
2023/12/29 04:38:01;;;;;;;9.80;1.60;;;11.40;99.90;;;;;;5137322;27;20445;-69
2023/12/29 04:40:29;;;;;;;8.20;3.20;;;11.40;99.90;;;;;;5136943;27;20997;-69
2023/12/29 04:42:56;;;;;;;14.00;1.93;;;11.40;99.90;;;;;;5138721;27;20446;-69
2023/12/29 04:45:22;;;;;;;12.60;2.00;;;11.40;99.90;;;;;;5140156;27;20442;-69
2023/12/29 04:47:49;;;;;;;9.17;1.83;;;11.40;99.90;;;;;;5137093;27;20473;-69
2023/12/29 04:50:16;;;;;;;3.87;1.50;;;11.40;99.90;;;;;;5137068;27;20485;-69
2023/12/29 04:52:43;;;;;;;2.90;1.40;;;11.50;99.90;;;;;;5136538;27;20438;-69
2023/12/29 04:55:09;;;;;;;10.13;2.23;;;11.40;99.90;;;;;;5136549;27;20453;-69
2023/12/29 04:57:39;;;;;;;7.20;2.93;;;11.50;99.90;;;;;;5136804;27;20516;-69
2023/12/29 05:00:07;;;;;;;8.37;1.50;;;11.40;99.90;;;;;;5136633;27;20466;-69
2023/12/29 05:02:33;;;;;;;3.67;1.17;;;11.40;99.90;;;;;;5136411;27;20549;-69
2023/12/29 05:05:00;;;;;;;10.70;2.03;;;11.40;99.90;;;;;;5136039;27;20828;-69
2023/12/29 05:07:28;;;;;;;7.20;1.73;;;11.40;99.90;;;;;;5136441;27;20845;-69
2023/12/29 05:09:54;;;;;;;2.40;1.20;;;11.40;99.90;;;;;;5136830;27;20457;-69
2023/12/29 05:12:21;;;;;;;8.17;2.00;;;11.40;99.90;;;;;;5136032;27;20449;-69
2023/12/29 05:14:49;;;;;;;7.60;2.40;;;11.40;99.90;;;;;;5117905;27;20529;-69
2023/12/29 05:17:16;;;;;;;9.53;2.00;;;11.40;99.90;;;;;;5136550;27;20848;-69
2023/12/29 05:19:43;;;;;;;6.20;1.50;;;11.30;99.90;;;;;;5136725;27;20458;-69
2023/12/29 05:22:11;;;;;;;7.23;2.53;;;11.30;99.90;;;;;;5136531;27;20438;-69
2023/12/29 05:24:38;;;;;;;10.50;2.40;;;11.30;99.90;;;;;;5136317;27;20454;-69
2023/12/29 05:27:05;;;;;;;7.30;1.50;;;11.30;99.90;;;;;;5117893;27;20500;-69
2023/12/29 05:29:31;;;;;;;6.30;1.73;;;11.30;99.90;;;;;;5136107;27;20465;-69
2023/12/29 05:32:02;;;;;;;11.40;1.63;;;11.30;99.90;;;;;;5136388;27;20474;-69
2023/12/29 05:34:29;;;;;;;5.13;1.67;;;11.30;99.90;;;;;;5150196;27;20411;-69
2023/12/29 05:36:59;;;;;;;10.83;1.60;;;11.30;99.90;;;;;;5145182;27;20957;-69
2023/12/29 05:39:25;;;;;;;11.30;1.63;;;11.30;99.90;;;;;;5141132;27;20483;-69
2023/12/29 05:41:52;;;;;;;12.50;2.40;;;11.30;99.90;;;;;;5138675;27;20438;-69
2023/12/29 05:44:19;;;;;;;7.70;2.20;;;11.30;99.90;;;;;;5139393;27;20477;-69
2023/12/29 05:46:47;;;;;;;8.50;2.33;;;11.30;99.90;;;;;;5139229;27;20437;-69
2023/12/29 05:49:15;;;;;;;8.30;1.30;;;11.30;99.90;;;;;;5137366;27;20462;-69
2023/12/29 05:51:42;;;;;;;13.50;2.03;;;11.30;99.90;;;;;;5143591;27;20438;-69
2023/12/29 05:54:09;;;;;;;11.73;2.17;;;11.30;99.90;;;;;;5144699;27;20456;-69
2023/12/29 05:56:36;;;;;;;10.13;1.57;;;11.30;99.90;;;;;;5142205;27;20453;-69
2023/12/29 05:59:02;;;;;;;9.47;1.90;;;11.30;99.90;;;;;;5142833;27;20430;-69
2023/12/29 06:01:29;;;;;;;5.70;1.43;;;11.20;99.90;;;;;;5143043;27;20438;-69
2023/12/29 06:03:56;;;;;;;3.03;1.20;;;11.20;99.90;;;;;;5123581;27;20438;-69
2023/12/29 06:06:24;;;;;;;5.53;2.13;;;11.30;99.90;;;;;;5140911;27;20448;-69
2023/12/29 06:08:51;;;;;;;8.57;1.60;;;11.30;99.90;;;;;;5139989;27;20492;-69
2023/12/29 06:11:18;;;;;;;5.93;1.90;;;11.20;99.90;;;;;;5139220;27;20438;-69
2023/12/29 06:13:45;;;;;;;7.30;1.70;;;11.20;99.90;;;;;;5139025;27;20442;-69
2023/12/29 06:16:18;;;;;;;4.87;1.40;;;11.20;99.90;;;;;;5137571;27;20971;-69
2023/12/29 06:18:45;;;;;;;11.50;1.87;;;11.20;99.90;;;;;;5138091;27;20426;-69
2023/12/29 06:21:12;;;;;;;3.93;1.50;;;11.20;99.90;;;;;;5138148;27;20491;-69
2023/12/29 06:23:40;;;;;;;10.60;2.30;;;11.20;99.90;;;;;;5137516;27;20440;-69
2023/12/29 06:26:15;;;;;;;5.80;1.77;;;11.20;99.90;;;;;;5137839;27;20439;-69
2023/12/29 06:28:42;;;;;;;5.83;1.47;;;11.20;99.90;;;;;;5136497;27;20501;-69
2023/12/29 06:31:08;;;;;;;7.63;1.40;;;11.20;99.90;;;;;;5137518;27;20458;-69
2023/12/29 06:33:35;;;;;;;8.40;1.23;;;11.30;99.90;;;;;;5136940;27;20438;-69
2023/12/29 06:36:03;;;;;;;5.93;1.50;;;11.20;99.90;;;;;;5135150;27;20434;-69
2023/12/29 06:38:30;;;;;;;6.23;1.40;;;11.30;99.90;;;;;;5135830;27;20434;-69
2023/12/29 06:40:58;;;;;;;4.67;1.27;;;11.30;99.90;;;;;;5135852;27;20553;-69
2023/12/29 06:43:25;;;;;;;6.57;2.10;;;11.20;99.90;;;;;;5135807;27;20442;-69
2023/12/29 06:45:52;;;;;;;6.90;1.20;;;11.30;99.90;;;;;;5135583;27;20937;-69
2023/12/29 06:48:19;;;;;;;6.30;1.50;;;11.30;99.90;;;;;;5135344;27;20484;-69
2023/12/29 06:50:46;;;;;;;8.30;1.33;;;11.30;99.90;;;;;;5135131;27;20457;-69
2023/12/29 06:53:13;;;;;;;4.40;1.20;;;11.30;99.90;;;;;;5135708;27;20529;-69
2023/12/29 06:55:40;;;;;;;4.90;1.70;;;11.30;99.90;;;;;;5135184;27;20450;-69
2023/12/29 06:58:08;;;;;;;3.63;1.60;;;11.30;99.90;;;;;;5134928;27;20429;-69
2023/12/29 07:00:35;;;;;;;7.03;1.30;;;11.30;99.90;;;;;;5135152;27;20464;-69
2023/12/29 07:03:02;;;;;;;5.30;2.00;;;11.30;99.90;;;;;;5134738;27;20945;-69
2023/12/29 07:05:29;;;;;;;4.23;1.40;;;11.30;99.90;;;;;;5135073;27;20802;-69
2023/12/29 07:07:56;;;;;;;5.30;1.30;;;11.40;99.90;;;;;;5134109;28;20478;-69
2023/12/29 07:10:22;;;;;;;8.03;2.47;;;11.40;99.90;;;;;;5134725;28;20458;-69
2023/12/29 07:12:50;;;;;;;4.70;1.30;;;11.40;99.90;;;;;;5134657;28;20434;-69
2023/12/29 07:15:18;;;;;;;6.83;1.37;;;11.40;99.90;;;;;;5134811;28;20445;-69
2023/12/29 07:17:45;;;;;;;4.07;1.60;;;11.40;99.90;;;;;;5134745;28;20430;-69
2023/12/29 07:20:12;;;;;;;4.33;1.30;;;11.40;99.90;;;;;;5135417;28;20460;-69
2023/12/29 07:22:39;;;;;;;4.50;1.30;;;11.40;99.90;;;;;;5119537;28;20444;-70
2023/12/29 07:25:06;;;;;;;7.70;1.30;;;11.40;99.90;;;;;;5134969;28;20438;-69
2023/12/29 07:27:33;;;;;;;3.53;1.40;;;11.40;99.90;;;;;;5134567;27;20473;-69
2023/12/29 07:30:00;;;;;;;7.53;1.13;;;11.40;99.90;;;;;;5138266;27;20469;-69
2023/12/29 07:32:29;;;;;;;4.67;1.30;;;11.40;99.90;;;;;;5138925;27;20437;-68
2023/12/29 07:34:57;;;;;;;6.40;2.30;;;11.40;99.90;;;;;;5138721;27;20485;-68
2023/12/29 07:37:24;;;;;;;5.13;1.00;;;11.40;99.90;;;;;;5138543;27;20502;-67
2023/12/29 07:39:51;;;;;;;4.30;1.23;;;11.40;99.90;;;;;;5138152;27;20470;-67
2023/12/29 07:42:19;;;;;;;2.83;1.10;;;11.30;99.90;;;;;;5138945;27;20817;-68
2023/12/29 07:44:46;;;;;;;5.93;1.73;;;11.20;99.90;;;;;;5138717;27;20480;-68
2023/12/29 07:47:13;;;;;;;7.83;1.90;;;11.10;99.90;;;;;;5150682;27;20536;-67
2023/12/29 07:49:42;;;;;;;6.17;2.10;;;11.00;99.90;;;;;;5143645;27;20481;-68
2023/12/29 07:52:09;;;;;;;6.13;1.30;;;11.00;99.90;;;;;;5122062;27;20448;-68
2023/12/29 07:54:36;;;;;;;3.13;1.20;;;11.00;99.90;;;;;;5121147;27;20935;-68
2023/12/29 07:57:03;;;;;;;2.70;1.33;;;10.90;99.90;;;;;;5139181;27;20429;-67
2023/12/29 07:59:29;;;;;;;7.10;1.90;;;10.90;99.90;;;;;;5138887;27;20478;-68
2023/12/29 08:01:57;;;;;;;6.50;1.60;;;11.00;99.90;;;;;;5139070;27;20445;-68
2023/12/29 08:04:24;;;;;;;4.83;1.30;;;10.90;99.90;;;;;;5119989;27;20452;-68
2023/12/29 08:06:52;;;;;;;8.03;1.50;;;10.90;99.90;;;;;;5138123;27;20784;-68
2023/12/29 08:09:19;;;;;;;7.20;1.50;;;10.80;99.90;;;;;;5138209;27;20534;-68
2023/12/29 08:11:46;;;;;;;3.33;1.80;;;10.70;99.90;;;;;;5138121;27;20442;-68
2023/12/29 08:14:13;;;;;;;4.40;1.30;;;10.70;99.90;;;;;;5120050;27;20437;-68
2023/12/29 08:16:40;;;;;;;5.90;1.43;;;10.70;99.90;;;;;;5138202;27;20444;-68
2023/12/29 08:19:07;;;;;;;9.90;3.60;;;10.60;99.90;;;;;;5138369;27;20495;-68
2023/12/29 08:21:34;;;;;;;4.23;1.20;;;10.60;99.90;;;;;;5138049;27;20452;-68
2023/12/29 08:24:03;;;;;;;2.50;1.27;;;10.50;99.90;;;;;;5119774;27;20438;-68
2023/12/29 08:26:30;;;;;;;4.13;1.27;;;10.50;99.90;;;;;;5137545;27;20441;-68
2023/12/29 08:28:57;;;;;;;3.40;1.27;;;10.40;99.90;;;;;;5137479;27;20477;-67
2023/12/29 08:31:23;;;;;;;7.83;1.60;;;10.40;99.90;;;;;;5137705;27;20430;-67
2023/12/29 08:33:50;;;;;;;5.20;1.33;;;10.40;99.90;;;;;;5137765;27;20813;-67
2023/12/29 08:36:19;;;;;;;2.50;1.50;;;10.40;99.90;;;;;;5137662;27;20785;-68
2023/12/29 08:38:46;;;;;;;5.27;1.60;;;10.40;99.90;;;;;;5137708;27;20442;-68
2023/12/29 08:41:16;;;;;;;11.83;2.50;;;10.30;99.90;;;;;;5136722;27;20462;-67
2023/12/29 08:43:43;;;;;;;7.80;1.73;;;10.20;99.90;;;;;;5137337;27;20961;-67
2023/12/29 08:46:09;;;;;;;3.90;1.73;;;10.20;99.90;;;;;;5137327;27;20969;-67
2023/12/29 08:48:36;;;;;;;5.77;1.53;;;10.20;99.90;;;;;;5136837;27;21021;-68
2023/12/29 08:51:03;;;;;;;10.93;1.80;;;10.30;99.90;;;;;;5137456;27;20533;-68
2023/12/29 08:53:34;;;;;;;7.60;1.83;;;10.30;99.90;;;;;;5137316;27;20445;-68
2023/12/29 08:56:00;;;;;;;6.10;1.50;;;10.40;99.90;;;;;;5119165;27;20457;-68
2023/12/29 08:58:29;;;;;;;4.40;1.50;;;10.40;99.90;;;;;;5137335;27;20443;-68
2023/12/29 09:00:56;;;;;;;3.67;1.90;;;10.50;99.90;;;;;;5137278;27;20465;-71
2023/12/29 09:03:22;;;;;;;7.40;2.30;;;10.50;99.90;;;;;;5136851;27;20962;-68
2023/12/29 09:05:49;;;;;;;5.97;1.30;;;10.50;99.90;;;;;;5137154;27;20445;-69
2023/12/29 09:08:16;;;;;;;3.13;1.50;;;10.50;99.90;;;;;;5136197;27;20480;-69
2023/12/29 09:10:43;;;;;;;6.97;1.63;;;10.50;99.90;;;;;;5136675;27;20461;-69
2023/12/29 09:13:10;;;;;;;4.97;1.50;;;10.60;99.90;;;;;;5136248;27;20442;-69
2023/12/29 09:15:38;;;;;;;7.40;1.70;;;10.50;99.90;;;;;;5136895;27;20438;-69
2023/12/29 09:18:06;;;;;;;6.77;1.40;;;10.50;99.90;;;;;;5136786;27;20446;-69
2023/12/29 09:20:32;;;;;;;4.30;1.47;;;10.60;99.90;;;;;;5118119;27;20461;-68
2023/12/29 09:22:59;;;;;;;5.70;1.53;;;10.60;99.90;;;;;;5136781;27;20445;-68
2023/12/29 09:25:27;;;;;;;2.57;1.40;;;10.60;99.90;;;;;;5136165;27;20537;-69
2023/12/29 09:27:54;;;;;;;4.40;1.37;;;10.70;99.90;;;;;;5118003;27;20446;-69
2023/12/29 09:30:21;;;;;;;4.80;1.47;;;10.60;99.90;;;;;;5117936;27;20985;-68
2023/12/29 09:32:49;;;;;;;3.50;1.30;;;10.60;99.90;;;;;;5136178;27;20475;-69
2023/12/29 09:35:17;;;;;;;3.73;1.60;;;10.60;99.90;;;;;;5136415;27;20441;-69
2023/12/29 09:37:43;;;;;;;5.03;1.20;;;10.60;99.90;;;;;;5136745;27;20442;-68
2023/12/29 09:40:11;;;;;;;4.60;0.97;;;10.60;99.90;;;;;;5136619;27;20466;-69
2023/12/29 09:42:39;;;;;;;2.73;1.30;;;10.60;99.90;;;;;;5136798;27;20466;-69
2023/12/29 09:45:11;;;;;;;6.00;1.47;;;10.70;99.90;;;;;;5136021;27;20437;-70
2023/12/29 09:47:40;;;;;;;5.87;2.03;;;10.70;99.90;;;;;;5135928;27;20423;-69
2023/12/29 09:50:16;;;;;;;1.20;1.00;;;10.70;99.90;;;;;;5135664;27;20478;-69
2023/12/29 09:52:44;;;;;;;3.87;1.00;;;10.80;99.90;;;;;;5136105;27;20524;-69
2023/12/29 09:55:12;;;;;;;4.80;1.10;;;10.90;99.90;;;;;;5135852;27;20458;-69
2023/12/29 09:57:39;;;;;;;5.73;1.13;;;11.00;99.90;;;;;;5136223;27;20442;-69
2023/12/29 10:00:07;;;;;;;3.27;1.73;;;11.10;99.90;;;;;;5126124;27;20453;-70
2023/12/29 10:02:35;;;;;;;6.57;1.20;;;11.20;99.90;;;;;;5127241;27;20486;-70
2023/12/29 10:05:04;;;;;;;4.57;0.87;;;11.30;99.90;;;;;;5123516;27;20481;-69
2023/12/29 10:07:38;;;;;;;3.93;0.87;;;11.30;99.90;;;;;;5121787;27;20943;-69
2023/12/29 10:10:07;;;;;;;3.10;1.53;;;11.30;99.90;;;;;;5138328;27;20485;-69
2023/12/29 10:12:36;;;;;;;1.63;1.20;;;11.30;99.90;;;;;;5137106;27;20887;-69
2023/12/29 10:15:09;;;;;;;5.13;0.70;;;11.30;99.90;;;;;;5136656;27;20446;-68
2023/12/29 10:17:47;;;;;;;2.60;1.10;;;11.30;99.90;;;;;;5136222;27;20430;-69
2023/12/29 10:20:24;;;;;;;4.93;0.80;;;11.40;99.90;;;;;;5115403;27;20498;-69
2023/12/29 10:23:01;;;;;;;2.50;1.10;;;11.40;99.90;;;;;;5135794;27;20422;-69
2023/12/29 10:25:30;;;;;;;4.87;1.30;;;11.40;99.90;;;;;;5136270;27;20779;-69
2023/12/29 10:27:58;;;;;;;3.60;0.93;;;11.40;99.90;;;;;;5135636;27;20453;-71
2023/12/29 10:30:25;;;;;;;2.93;0.93;;;11.50;99.90;;;;;;5135828;27;20478;-71
2023/12/29 10:32:52;;;;;;;6.23;1.07;;;11.40;99.90;;;;;;5135874;27;20442;-71
2023/12/29 10:35:19;;;;;;;2.33;1.07;;;11.40;99.90;;;;;;5135473;27;20437;-71
2023/12/29 10:37:46;;;;;;;4.43;1.20;;;11.40;99.90;;;;;;5135729;27;20437;-71
2023/12/29 10:40:19;;;;;;;2.60;0.70;;;11.50;99.90;;;;;;5134983;27;20992;-71
2023/12/29 10:42:57;;;;;;;1.53;0.90;;;11.50;99.90;;;;;;5134738;27;20454;-71
2023/12/29 10:45:25;;;;;;;3.60;1.07;;;11.60;99.90;;;;;;5135011;27;20446;-72
2023/12/29 10:47:51;;;;;;;3.17;0.97;;;11.70;99.90;;;;;;5116750;27;20470;-72
2023/12/29 10:50:18;;;;;;;9.80;1.10;;;11.70;99.90;;;;;;5134350;27;20485;-71
2023/12/29 10:52:46;;;;;;;2.60;1.00;;;11.80;99.90;;;;;;5134914;27;20495;-71
2023/12/29 10:55:13;;;;;;;3.93;1.07;;;12.00;99.90;;;;;;5116210;27;20864;-72
2023/12/29 10:57:41;;;;;;;4.90;0.97;;;12.10;99.90;;;;;;5134773;27;20445;-71
2023/12/29 11:00:12;;;;;;;3.37;1.00;;;12.20;99.90;;;;;;5134247;27;20526;-71
2023/12/29 11:02:39;;;;;;;6.50;2.10;;;12.30;99.90;;;;;;5134887;27;20430;-71
2023/12/29 11:05:07;;;;;;;5.33;0.83;;;12.40;99.90;;;;;;5134537;27;20441;-72
2023/12/29 11:07:36;;;;;;;2.73;0.97;;;12.40;99.90;;;;;;5134551;27;20438;-72
2023/12/29 11:10:04;;;;;;;7.13;1.00;;;12.40;99.90;;;;;;5134255;28;20493;-72
2023/12/29 11:12:34;;;;;;;4.80;0.90;;;12.40;99.90;;;;;;5134452;28;20532;-72
2023/12/29 11:15:03;;;;;;;3.50;1.07;;;12.40;99.90;;;;;;5134386;28;20491;-72
2023/12/29 11:17:32;;;;;;;1.87;1.00;;;12.40;99.90;;;;;;5134357;28;20449;-72
2023/12/29 11:20:00;;;;;;;2.03;1.10;;;12.40;99.90;;;;;;5134226;28;20505;-71
2023/12/29 11:22:30;;;;;;;4.23;1.20;;;12.40;99.90;;;;;;5134364;28;20469;-71
2023/12/29 11:24:58;;;;;;;8.37;0.97;;;12.30;99.90;;;;;;5134203;28;20442;-72
2023/12/29 11:27:28;;;;;;;3.67;0.97;;;12.30;99.90;;;;;;5116397;28;20441;-72
2023/12/29 11:29:56;;;;;;;7.40;1.27;;;12.30;99.90;;;;;;5116283;28;20485;-72
2023/12/29 11:32:39;;;;;;;2.67;1.03;;;12.20;99.90;;;;;;5116127;28;20445;-72
2023/12/29 11:35:14;;;;;;;4.77;1.20;;;12.20;99.90;;;;;;5134183;28;20430;-72
2023/12/29 11:38:01;;;;;;;3.63;0.90;;;12.20;99.90;;;;;;5134116;28;20432;-72
2023/12/29 11:40:34;;;;;;;6.07;1.30;;;12.10;99.90;;;;;;5133947;28;20966;-72
2023/12/29 11:43:08;;;;;;;2.83;1.00;;;12.10;99.90;;;;;;5133997;28;20807;-71
2023/12/29 11:45:36;;;;;;;3.63;1.30;;;12.10;99.90;;;;;;5134023;28;20455;-71
2023/12/29 11:48:05;;;;;;;1.77;1.23;;;12.10;99.90;;;;;;5116107;28;20464;-71
2023/12/29 11:50:33;;;;;;;3.77;1.00;;;12.00;99.90;;;;;;5116073;28;20488;-71
2023/12/29 11:53:00;;;;;;;5.40;1.07;;;12.00;99.90;;;;;;5134172;28;20453;-71
2023/12/29 11:55:31;;;;;;;2.73;0.87;;;11.90;99.90;;;;;;5133595;28;20442;-71
2023/12/29 11:57:59;;;;;;;4.67;1.43;;;11.90;99.90;;;;;;5134034;28;20438;-71
2023/12/29 12:00:43;;;;;;;2.27;1.83;;;11.90;99.90;;;;;;5133505;28;20458;-71
2023/12/29 12:03:32;;;;;;;1.57;0.80;;;11.90;99.90;;;;;;5116097;28;20502;-71
2023/12/29 12:06:03;;;;;;;2.87;1.40;;;11.90;99.90;;;;;;5134024;28;20450;-71
2023/12/29 12:08:31;;;;;;;3.47;0.80;;;12.00;99.90;;;;;;5129724;28;20460;-71
2023/12/29 12:11:22;;;;;;;1.87;0.77;;;12.00;99.90;;;;;;5146402;27;20488;-71
2023/12/29 12:13:49;;;;;;;4.80;1.30;;;12.00;99.90;;;;;;5139194;27;20457;-72
2023/12/29 12:16:50;;;;;;;2.77;0.77;;;12.10;99.90;;;;;;5141039;27;20442;-72
2023/12/29 12:19:20;;;;;;;6.60;1.00;;;12.10;99.90;;;;;;5138498;27;20463;-72
2023/12/29 12:21:49;;;;;;;3.07;1.00;;;12.10;99.90;;;;;;5138010;27;20419;-72
2023/12/29 12:24:19;;;;;;;2.63;1.07;;;12.00;99.90;;;;;;5138819;27;20854;-72
2023/12/29 12:26:45;;;;;;;2.00;0.90;;;12.00;99.90;;;;;;5138721;27;20434;-72
2023/12/29 12:29:14;;;;;;;5.30;0.87;;;12.10;99.90;;;;;;5137904;27;20485;-71
2023/12/29 12:31:52;;;;;;;4.10;1.00;;;12.00;99.90;;;;;;5138367;27;20468;-71
2023/12/29 12:34:22;;;;;;;3.30;1.07;;;11.90;99.90;;;;;;5137445;27;20446;-71
2023/12/29 12:36:50;;;;;;;2.80;1.23;;;11.80;99.90;;;;;;5141248;27;20441;-71
2023/12/29 12:39:17;;;;;;;3.27;1.57;;;11.80;99.90;;;;;;5137607;27;20462;-71
2023/12/29 12:41:44;;;;;;;3.00;0.90;;;11.70;99.90;;;;;;5137516;27;20832;-71
2023/12/29 12:44:13;;;;;;;1.93;1.10;;;11.70;99.90;;;;;;5137255;27;20442;-72
2023/12/29 12:46:42;;;;;;;2.80;1.00;;;11.60;99.90;;;;;;5137566;27;20474;-71
2023/12/29 12:49:09;;;;;;;3.37;0.90;;;11.70;99.90;;;;;;5137091;27;20438;-71